createdAt,value
2018-05-29T00:00:51.233Z,17.40
2018-05-29T00:03:18.930Z,17.30
2018-05-29T00:05:47.382Z,17.10
2018-05-29T00:08:15.035Z,17.10
2018-05-29T00:10:42.758Z,17.10
2018-05-29T00:13:10.411Z,17.10
2018-05-29T00:15:38.060Z,17.10
2018-05-29T00:18:05.669Z,17.10
2018-05-29T00:20:33.324Z,17.00
2018-05-29T00:23:00.977Z,17.00
2018-05-29T00:25:28.622Z,17.00
2018-05-29T00:27:56.331Z,16.90
2018-05-29T00:30:24.060Z,16.80
2018-05-29T00:32:51.803Z,16.80
2018-05-29T00:35:19.451Z,16.80
2018-05-29T00:37:47.123Z,16.70
2018-05-29T00:40:14.812Z,16.60
2018-05-29T00:42:42.552Z,16.60
2018-05-29T00:45:13.862Z,16.50
2018-05-29T00:47:42.422Z,16.40
2018-05-29T00:50:10.069Z,16.40
2018-05-29T00:52:37.758Z,16.30
2018-05-29T00:55:18.755Z,16.20
2018-05-29T00:57:46.486Z,16.10
2018-05-29T01:00:14.047Z,16.10
2018-05-29T01:02:41.631Z,16.10
2018-05-29T01:05:10.376Z,16.20
2018-05-29T01:07:37.952Z,16.20
2018-05-29T01:10:05.528Z,16.20
2018-05-29T01:12:33.914Z,16.00
2018-05-29T01:15:01.536Z,16.00
2018-05-29T01:17:29.164Z,15.90
2018-05-29T01:19:56.782Z,15.90
2018-05-29T01:22:25.141Z,15.90
2018-05-29T01:24:52.733Z,15.80
2018-05-29T01:27:20.392Z,15.80
2018-05-29T01:29:48.005Z,15.80
2018-05-29T01:32:15.617Z,15.90
2018-05-29T01:34:43.248Z,15.80
2018-05-29T01:37:11.627Z,15.90
2018-05-29T01:39:39.992Z,15.90
2018-05-29T01:42:07.600Z,15.90
2018-05-29T01:44:35.972Z,15.90
2018-05-29T01:47:03.589Z,15.90
2018-05-29T01:49:31.163Z,15.90
2018-05-29T01:51:58.777Z,15.90
2018-05-29T01:54:26.387Z,15.90
2018-05-29T01:56:54.729Z,15.70
2018-05-29T01:59:22.319Z,15.70
2018-05-29T02:01:50.000Z,15.60
2018-05-29T02:04:17.607Z,15.60
2018-05-29T02:06:45.239Z,15.60
2018-05-29T02:09:12.792Z,15.60
2018-05-29T02:11:40.444Z,15.60
2018-05-29T02:14:08.027Z,15.50
2018-05-29T02:16:35.630Z,15.50
2018-05-29T02:19:04.062Z,15.40
2018-05-29T02:21:31.692Z,15.40
2018-05-29T02:24:00.177Z,15.30
2018-05-29T02:26:27.868Z,15.30
2018-05-29T02:28:55.437Z,15.30
2018-05-29T02:31:23.089Z,15.30
2018-05-29T02:33:50.739Z,15.40
2018-05-29T02:36:18.391Z,15.30
2018-05-29T02:38:46.002Z,15.30
2018-05-29T02:41:13.586Z,15.20
2018-05-29T02:43:41.162Z,15.20
2018-05-29T02:46:08.767Z,15.20
2018-05-29T02:48:36.330Z,15.20
2018-05-29T02:51:03.904Z,15.30
2018-05-29T02:53:32.286Z,15.30
2018-05-29T02:56:00.649Z,15.30
2018-05-29T02:58:29.029Z,15.30
2018-05-29T03:00:57.394Z,15.30
2018-05-29T03:03:25.016Z,15.30
2018-05-29T03:05:52.619Z,15.30
2018-05-29T03:08:20.964Z,15.40
2018-05-29T03:10:48.604Z,15.40
2018-05-29T03:13:16.258Z,15.40
2018-05-29T03:15:43.832Z,15.50
2018-05-29T03:18:11.445Z,15.50
2018-05-29T03:20:39.776Z,15.40
2018-05-29T03:23:07.402Z,15.40
2018-05-29T03:25:34.989Z,15.50
2018-05-29T03:28:02.590Z,15.50
2018-05-29T03:30:30.945Z,15.50
2018-05-29T03:32:58.529Z,15.50
2018-05-29T03:35:26.864Z,15.40
2018-05-29T03:37:54.529Z,15.40
2018-05-29T03:40:22.092Z,15.40
2018-05-29T03:42:49.728Z,15.40
2018-05-29T03:45:17.287Z,15.40
2018-05-29T03:47:44.908Z,15.40
2018-05-29T03:50:13.265Z,15.50
2018-05-29T03:52:40.889Z,15.50
2018-05-29T03:55:08.523Z,15.50
2018-05-29T03:57:36.154Z,15.60
2018-05-29T04:00:03.739Z,15.70
2018-05-29T04:02:31.344Z,15.70
2018-05-29T04:04:58.964Z,15.80
2018-05-29T04:07:26.595Z,15.80
2018-05-29T04:09:55.007Z,16.00
2018-05-29T04:12:23.379Z,16.00
2018-05-29T04:14:51.007Z,16.00
2018-05-29T04:17:19.433Z,16.20
2018-05-29T04:19:47.055Z,16.20
2018-05-29T04:22:15.431Z,16.30
2018-05-29T04:24:44.628Z,16.30
2018-05-29T04:27:13.010Z,16.40
2018-05-29T04:29:41.376Z,16.60
2018-05-29T04:32:10.619Z,16.70
2018-05-29T04:34:38.252Z,16.70
2018-05-29T04:37:05.872Z,16.80
2018-05-29T04:39:33.490Z,16.80
2018-05-29T04:42:01.093Z,16.90
2018-05-29T04:44:28.719Z,16.90
2018-05-29T04:46:56.301Z,17.00
2018-05-29T04:49:23.938Z,17.00
2018-05-29T04:51:51.565Z,17.10
2018-05-29T04:54:19.209Z,17.10
2018-05-29T04:56:47.617Z,17.30
2018-05-29T04:59:15.203Z,17.30
2018-05-29T05:01:42.803Z,17.40
2018-05-29T05:04:11.219Z,17.60
2018-05-29T05:06:38.879Z,17.50
2018-05-29T05:09:06.562Z,17.60
2018-05-29T05:11:34.186Z,17.80
2018-05-29T05:14:01.805Z,17.90
2018-05-29T05:16:29.448Z,18.00
2018-05-29T05:18:57.109Z,18.10
2018-05-29T05:21:24.744Z,18.20
2018-05-29T05:23:53.274Z,18.40
2018-05-29T05:26:21.622Z,18.70
2018-05-29T05:28:49.332Z,18.60
2018-05-29T05:31:17.697Z,18.90
2018-05-29T05:33:46.102Z,19.10
2018-05-29T05:36:13.714Z,19.10
2018-05-29T05:38:41.308Z,19.30
2018-05-29T05:41:09.671Z,19.60
2018-05-29T05:43:38.022Z,19.80
2018-05-29T05:46:05.634Z,19.80
2018-05-29T05:48:33.195Z,20.00
2018-05-29T05:51:00.823Z,20.20
2018-05-29T05:53:29.216Z,20.60
2018-05-29T05:55:57.607Z,20.70
2018-05-29T05:58:25.273Z,20.70
2018-05-29T06:00:52.848Z,20.90
2018-05-29T06:03:20.467Z,21.10
2018-05-29T06:05:48.844Z,21.30
2018-05-29T06:08:17.391Z,21.30
2018-05-29T06:10:44.999Z,21.40
2018-05-29T06:13:12.608Z,21.60
2018-05-29T06:15:40.242Z,21.80
2018-05-29T06:18:08.190Z,21.90
2018-05-29T06:20:35.804Z,22.00
2018-05-29T06:23:03.520Z,22.20
2018-05-29T06:25:31.876Z,22.40
2018-05-29T06:27:59.445Z,22.40
2018-05-29T06:30:27.044Z,22.50
2018-05-29T06:32:54.678Z,22.60
2018-05-29T06:35:25.037Z,22.70
2018-05-29T06:37:53.397Z,22.80
2018-05-29T06:40:21.013Z,22.90
2018-05-29T06:42:48.921Z,23.00
2018-05-29T06:45:16.518Z,23.10
2018-05-29T06:47:44.862Z,23.30
2018-05-29T06:50:12.697Z,23.30
2018-05-29T06:52:40.449Z,23.40
2018-05-29T06:55:08.552Z,23.50
2018-05-29T06:57:36.726Z,23.60
2018-05-29T07:00:04.319Z,23.80
2018-05-29T07:02:33.770Z,24.00
2018-05-29T07:05:04.583Z,24.00
2018-05-29T07:07:51.425Z,24.20
2018-05-29T07:12:51.592Z,24.20
2018-05-29T07:15:26.835Z,24.30
2018-05-29T07:17:54.386Z,24.30
2018-05-29T07:20:27.350Z,24.50
2018-05-29T07:22:54.949Z,24.50
2018-05-29T07:25:31.106Z,24.60
2018-05-29T07:27:59.572Z,24.70
2018-05-29T07:30:28.048Z,24.70
2018-05-29T07:32:55.662Z,24.90
2018-05-29T07:35:42.226Z,24.90
2018-05-29T07:38:09.858Z,25.00
2018-05-29T07:40:39.293Z,25.10
2018-05-29T07:43:07.654Z,25.30
2018-05-29T07:45:56.886Z,25.30
2018-05-29T07:48:25.269Z,25.50
2018-05-29T07:50:52.992Z,25.50
2018-05-29T07:53:21.913Z,25.60
2018-05-29T07:55:58.562Z,25.70
2018-05-29T07:58:31.589Z,25.80
2018-05-29T08:06:10.751Z,26.00
2018-05-29T08:08:38.323Z,26.10
2018-05-29T08:11:05.983Z,26.10
2018-05-29T08:13:33.551Z,26.20
2018-05-29T08:16:04.220Z,26.30
2018-05-29T08:18:31.861Z,26.30
2018-05-29T08:20:59.423Z,26.40
2018-05-29T08:23:26.985Z,26.40
2018-05-29T08:25:54.631Z,26.50
2018-05-29T08:28:22.985Z,26.70
2018-05-29T08:30:50.588Z,26.70
2018-05-29T08:33:18.144Z,26.70
2018-05-29T08:35:53.155Z,26.80
2018-05-29T08:38:21.559Z,26.90
2018-05-29T08:40:49.160Z,26.90
2018-05-29T08:43:16.823Z,27.00
2018-05-29T08:45:45.520Z,27.10
2018-05-29T08:48:13.125Z,27.20
2018-05-29T08:50:40.712Z,27.30
2018-05-29T08:53:09.922Z,27.40
2018-05-29T08:55:37.552Z,27.40
2018-05-29T08:58:05.192Z,27.50
2018-05-29T09:00:32.805Z,27.50
2018-05-29T09:03:00.441Z,27.50
2018-05-29T09:05:29.049Z,27.60
2018-05-29T09:07:56.673Z,27.60
2018-05-29T09:10:24.657Z,27.70
2018-05-29T09:12:52.303Z,27.70
2018-05-29T09:15:21.197Z,27.70
2018-05-29T09:17:52.157Z,27.80
2018-05-29T09:20:19.995Z,27.80
2018-05-29T09:22:47.649Z,28.00
2018-05-29T09:25:23.041Z,28.10
2018-05-29T09:27:50.935Z,28.20
2018-05-29T09:30:18.503Z,28.20
2018-05-29T09:32:46.186Z,28.30
2018-05-29T09:35:14.652Z,28.40
2018-05-29T09:40:19.957Z,28.50
2018-05-29T09:42:47.673Z,28.50
2018-05-29T09:45:16.377Z,28.70
2018-05-29T09:47:55.451Z,28.60
2018-05-29T09:50:24.133Z,28.80
2018-05-29T09:52:52.637Z,28.90
2018-05-29T09:55:20.473Z,28.80
2018-05-29T09:57:49.229Z,29.10
2018-05-29T10:00:22.489Z,29.10
2018-05-29T10:02:50.112Z,29.20
2018-05-29T10:05:18.509Z,29.40
2018-05-29T10:07:47.263Z,29.40
2018-05-29T10:10:14.903Z,29.50
2018-05-29T10:12:42.517Z,29.70
2018-05-29T10:15:10.531Z,29.70
2018-05-29T10:17:38.171Z,29.80
2018-05-29T10:20:05.787Z,29.90
2018-05-29T10:22:33.400Z,29.90
2018-05-29T10:25:01.032Z,30.00
2018-05-29T10:27:36.265Z,30.20
2018-05-29T10:30:03.893Z,30.30
2018-05-29T10:32:31.490Z,30.30
2018-05-29T10:34:59.094Z,30.40
2018-05-29T10:37:32.011Z,30.50
2018-05-29T10:40:00.342Z,30.60
2018-05-29T10:42:27.939Z,30.50
2018-05-29T10:44:56.409Z,30.70
2018-05-29T10:47:23.992Z,30.70
2018-05-29T10:49:51.555Z,30.80
2018-05-29T10:52:19.129Z,30.90
2018-05-29T10:54:46.768Z,31.00
2018-05-29T10:57:15.316Z,31.10
2018-05-29T10:59:42.916Z,31.20
2018-05-29T11:02:10.510Z,31.30
2018-05-29T11:04:38.120Z,31.50
2018-05-29T11:07:14.462Z,31.70
2018-05-29T11:09:42.112Z,31.80
2018-05-29T11:12:09.741Z,32.00
2018-05-29T11:14:38.383Z,32.20
2018-05-29T11:17:06.727Z,32.50
2018-05-29T11:19:34.345Z,32.40
2018-05-29T11:22:02.753Z,32.50
2018-05-29T11:24:30.361Z,32.40
2018-05-29T11:26:58.791Z,32.40
2018-05-29T11:29:26.472Z,32.40
2018-05-29T11:31:54.068Z,32.40
2018-05-29T11:34:21.698Z,32.50
2018-05-29T11:37:00.225Z,32.90
2018-05-29T11:39:28.585Z,33.20
2018-05-29T11:41:56.231Z,33.20
2018-05-29T11:44:23.864Z,33.30
2018-05-29T11:46:51.449Z,33.40
2018-05-29T11:49:19.057Z,33.70
2018-05-29T11:51:46.701Z,34.10
2018-05-29T11:54:15.052Z,34.60
2018-05-29T11:56:50.205Z,34.50
2018-05-29T11:59:18.576Z,34.80
2018-05-29T12:01:46.157Z,34.70
2018-05-29T12:04:14.513Z,35.00
2018-05-29T12:06:50.277Z,35.00
2018-05-29T12:09:17.892Z,34.90
2018-05-29T12:11:45.457Z,35.00
2018-05-29T12:14:13.038Z,35.00
2018-05-29T12:16:40.687Z,35.20
2018-05-29T12:19:08.325Z,35.40
2018-05-29T12:21:35.925Z,35.40
2018-05-29T12:24:03.531Z,35.50
2018-05-29T12:26:31.094Z,35.80
2018-05-29T12:29:20.434Z,35.90
2018-05-29T12:31:48.066Z,35.60
2018-05-29T12:34:15.703Z,35.30
2018-05-29T12:36:43.297Z,35.20
2018-05-29T12:39:10.967Z,35.50
2018-05-29T12:41:38.570Z,35.40
2018-05-29T12:44:06.200Z,35.00
2018-05-29T12:46:33.811Z,35.70
2018-05-29T12:49:06.917Z,36.70
2018-05-29T12:51:35.235Z,37.80
2018-05-29T12:54:03.617Z,37.50
2018-05-29T12:56:31.232Z,37.40
2018-05-29T12:59:02.647Z,36.60
2018-05-29T13:01:30.269Z,35.60
2018-05-29T13:03:57.888Z,35.50
2018-05-29T13:06:25.506Z,35.90
2018-05-29T13:08:54.102Z,35.80
2018-05-29T13:11:21.743Z,35.30
2018-05-29T13:13:49.344Z,35.10
2018-05-29T13:16:16.927Z,35.60
2018-05-29T13:18:46.385Z,35.90
2018-05-29T13:21:13.943Z,35.90
2018-05-29T13:23:41.525Z,35.20
2018-05-29T13:26:09.133Z,34.40
2018-05-29T13:28:37.742Z,33.90
2018-05-29T13:31:05.347Z,34.00
2018-05-29T13:33:32.968Z,34.70
2018-05-29T13:36:00.590Z,35.20
2018-05-29T13:38:28.162Z,35.30
2018-05-29T13:40:55.765Z,35.40
2018-05-29T13:43:24.099Z,36.30
2018-05-29T13:45:51.679Z,36.20
2018-05-29T13:48:19.230Z,36.50
2018-05-29T13:50:46.818Z,36.40
2018-05-29T13:53:14.465Z,36.20
2018-05-29T13:55:42.111Z,35.90
2018-05-29T13:58:11.704Z,35.40
2018-05-29T14:00:39.359Z,34.80
2018-05-29T14:03:07.006Z,34.40
2018-05-29T14:05:34.616Z,34.00
2018-05-29T14:08:06.394Z,33.80
2018-05-29T14:10:34.762Z,33.60
2018-05-29T14:13:03.129Z,33.50
2018-05-29T14:15:30.725Z,33.50
2018-05-29T14:18:02.941Z,33.40
2018-05-29T14:20:30.561Z,33.20
2018-05-29T14:22:58.163Z,33.00
2018-05-29T14:25:25.773Z,32.90
2018-05-29T14:27:53.373Z,32.90
2018-05-29T14:30:20.974Z,32.80
2018-05-29T14:32:49.335Z,32.60
2018-05-29T14:35:17.754Z,32.50
2018-05-29T14:37:45.362Z,32.40
2018-05-29T14:40:12.997Z,32.20
2018-05-29T14:42:40.616Z,32.00
2018-05-29T14:45:08.213Z,31.80
2018-05-29T14:47:35.905Z,31.60
2018-05-29T14:50:05.507Z,31.50
2018-05-29T14:52:33.197Z,31.40
2018-05-29T14:55:00.791Z,31.00
2018-05-29T14:57:28.401Z,30.60
2018-05-29T14:59:57.896Z,30.10
2018-05-29T15:02:25.527Z,30.00
2018-05-29T15:04:53.146Z,29.80
2018-05-29T15:07:20.745Z,29.60
2018-05-29T15:09:53.977Z,29.30
2018-05-29T15:12:22.403Z,28.90
2018-05-29T15:14:50.024Z,28.90
2018-05-29T15:17:17.646Z,28.80
2018-05-29T15:19:46.254Z,28.60
2018-05-29T15:22:14.614Z,28.30
2018-05-29T15:24:43.077Z,28.30
2018-05-29T15:27:10.721Z,28.10
2018-05-29T15:29:45.884Z,28.00
2018-05-29T15:32:13.509Z,27.80
2018-05-29T15:34:41.148Z,27.70
2018-05-29T15:37:08.749Z,27.60
2018-05-29T15:39:36.517Z,27.50
2018-05-29T15:42:04.218Z,27.40
2018-05-29T15:44:32.629Z,27.00
2018-05-29T15:47:01.073Z,26.90
2018-05-29T15:49:31.492Z,26.90
2018-05-29T15:51:59.821Z,27.00
2018-05-29T15:54:27.441Z,26.90
2018-05-29T15:56:55.073Z,27.10
2018-05-29T15:59:23.416Z,27.20
2018-05-29T16:01:50.992Z,27.40
2018-05-29T16:04:18.585Z,27.50
2018-05-29T16:06:46.961Z,27.50
2018-05-29T16:09:15.424Z,27.40
2018-05-29T16:11:43.059Z,27.40
2018-05-29T16:14:10.708Z,27.40
2018-05-29T16:16:38.309Z,27.30
2018-05-29T16:19:20.550Z,27.20
2018-05-29T16:21:48.156Z,27.10
2018-05-29T16:24:15.853Z,27.00
2018-05-29T16:26:44.181Z,26.80
2018-05-29T16:29:12.781Z,26.70
2018-05-29T16:31:40.407Z,26.80
2018-05-29T16:34:08.023Z,26.80
2018-05-29T16:36:36.377Z,26.50
2018-05-29T16:39:07.319Z,26.50
2018-05-29T16:41:34.920Z,26.20
2018-05-29T16:44:02.532Z,26.10
2018-05-29T16:46:30.174Z,25.90
2018-05-29T16:48:57.811Z,25.70
2018-05-29T16:51:25.395Z,25.50
2018-05-29T16:53:53.022Z,25.50
2018-05-29T16:56:21.447Z,25.30
2018-05-29T16:58:49.748Z,25.20
2018-05-29T17:01:18.189Z,25.10
2018-05-29T17:03:45.749Z,25.10
2018-05-29T17:06:13.406Z,25.10
2018-05-29T17:08:41.017Z,25.10
2018-05-29T17:11:09.625Z,25.10
2018-05-29T17:13:37.292Z,25.20
2018-05-29T17:16:04.877Z,25.10
2018-05-29T17:18:32.535Z,25.00
2018-05-29T17:21:00.168Z,24.90
2018-05-29T17:23:27.781Z,24.70
2018-05-29T17:25:56.121Z,24.00
2018-05-29T17:28:23.724Z,23.90
2018-05-29T17:30:52.153Z,23.50
2018-05-29T17:33:19.730Z,23.50
2018-05-29T17:35:47.306Z,23.40
2018-05-29T17:38:14.959Z,23.30
2018-05-29T17:40:42.551Z,23.20
2018-05-29T17:43:10.146Z,23.10
2018-05-29T17:45:37.839Z,23.10
2018-05-29T17:48:06.290Z,23.00
2018-05-29T17:50:33.906Z,23.00
2018-05-29T17:53:01.489Z,22.90
2018-05-29T17:55:29.125Z,22.90
2018-05-29T17:57:56.748Z,22.80
2018-05-29T18:00:24.347Z,22.70
2018-05-29T18:02:51.966Z,22.60
2018-05-29T18:05:19.612Z,22.60
2018-05-29T18:07:47.255Z,22.50
2018-05-29T18:10:14.950Z,22.40
2018-05-29T18:12:42.597Z,22.30
2018-05-29T18:15:10.269Z,22.10
2018-05-29T18:17:37.929Z,22.00
2018-05-29T18:20:05.656Z,21.90
2018-05-29T18:22:33.328Z,21.70
2018-05-29T18:25:00.912Z,21.60
2018-05-29T18:27:28.536Z,21.50
2018-05-29T18:29:58.048Z,21.40
2018-05-29T18:32:25.687Z,21.30
2018-05-29T18:34:53.304Z,21.10
2018-05-29T18:37:21.697Z,20.90
2018-05-29T18:39:50.081Z,20.80
2018-05-29T18:42:17.666Z,20.70
2018-05-29T18:44:45.282Z,20.70
2018-05-29T18:47:13.717Z,20.70
2018-05-29T18:49:41.345Z,20.60
2018-05-29T18:52:09.027Z,20.80
2018-05-29T18:54:36.632Z,20.90
2018-05-29T18:57:05.078Z,21.00
2018-05-29T18:59:32.658Z,21.00
2018-05-29T19:02:00.281Z,21.00
2018-05-29T19:04:29.135Z,21.00
2018-05-29T19:06:57.545Z,20.90
2018-05-29T19:09:25.116Z,20.80
2018-05-29T19:11:52.823Z,20.80
2018-05-29T19:14:21.200Z,20.70
2018-05-29T19:16:49.737Z,20.70
2018-05-29T19:19:18.066Z,20.60
2018-05-29T19:21:46.491Z,20.50
2018-05-29T19:24:14.131Z,20.50
2018-05-29T19:26:41.757Z,20.40
2018-05-29T19:29:10.116Z,20.20
2018-05-29T19:31:38.942Z,20.10
2018-05-29T19:34:06.538Z,20.10
2018-05-29T19:36:34.183Z,20.00
2018-05-29T19:39:01.793Z,19.90
2018-05-29T19:41:30.176Z,19.80
2018-05-29T19:43:58.605Z,19.70
2018-05-29T19:46:26.214Z,19.70
2018-05-29T19:48:54.584Z,19.60
2018-05-29T19:51:22.977Z,19.50
2018-05-29T19:53:50.569Z,19.50
2018-05-29T19:56:18.168Z,19.50
2018-05-29T19:58:45.764Z,19.40
2018-05-29T20:01:13.470Z,19.30
2018-05-29T20:03:41.082Z,19.20
2018-05-29T20:06:08.650Z,19.10
2018-05-29T20:08:36.351Z,19.10
2018-05-29T20:11:03.953Z,19.00
2018-05-29T20:13:32.368Z,18.90
2018-05-29T20:16:00.043Z,18.80
2018-05-29T20:18:27.713Z,18.80
2018-05-29T20:20:55.388Z,18.80
2018-05-29T20:23:23.036Z,18.90
2018-05-29T20:25:50.637Z,18.90
2018-05-29T20:28:19.051Z,18.90
2018-05-29T20:30:46.662Z,18.90
2018-05-29T20:33:14.266Z,18.90
2018-05-29T20:35:41.862Z,18.80
2018-05-29T20:38:09.457Z,18.70
2018-05-29T20:40:37.114Z,18.60
2018-05-29T20:43:04.785Z,18.50
2018-05-29T20:45:32.388Z,18.40
2018-05-29T20:48:00.037Z,18.40
2018-05-29T20:50:27.753Z,18.30
2018-05-29T20:52:55.417Z,18.30
2018-05-29T20:55:23.021Z,18.10
2018-05-29T20:57:50.642Z,18.10
2018-05-29T21:00:18.291Z,18.00
2018-05-29T21:02:46.667Z,17.90
2018-05-29T21:05:15.099Z,17.70
2018-05-29T21:07:42.683Z,17.70
2018-05-29T21:10:10.304Z,17.70
2018-05-29T21:12:37.933Z,17.60
2018-05-29T21:15:05.558Z,17.60
2018-05-29T21:17:33.157Z,17.40
2018-05-29T21:20:00.780Z,17.40
2018-05-29T21:22:28.420Z,17.20
2018-05-29T21:24:56.071Z,17.20
2018-05-29T21:27:23.662Z,17.20
2018-05-29T21:29:52.063Z,17.20
2018-05-29T21:32:19.759Z,17.20
2018-05-29T21:34:47.342Z,17.30
2018-05-29T21:37:15.011Z,17.40
2018-05-29T21:39:42.650Z,17.50
2018-05-29T21:42:10.278Z,17.60
2018-05-29T21:44:37.911Z,17.80
2018-05-29T21:47:05.626Z,17.80
2018-05-29T21:49:33.233Z,17.70
2018-05-29T21:52:01.681Z,17.60
2018-05-29T21:54:29.260Z,17.60
2018-05-29T21:56:56.955Z,17.50
2018-05-29T21:59:24.573Z,17.40
2018-05-29T22:01:52.220Z,17.20
2018-05-29T22:04:19.825Z,17.20
2018-05-29T22:06:47.442Z,17.20
2018-05-29T22:09:14.997Z,17.30
2018-05-29T22:11:42.640Z,17.40
2018-05-29T22:14:10.281Z,17.50
2018-05-29T22:16:37.891Z,17.60
2018-05-29T22:19:05.500Z,17.60
2018-05-29T22:21:33.105Z,17.60
2018-05-29T22:24:00.688Z,17.60
2018-05-29T22:26:29.020Z,17.60
2018-05-29T22:28:56.643Z,17.60
2018-05-29T22:31:24.260Z,17.70
2018-05-29T22:33:51.941Z,17.70
2018-05-29T22:36:20.345Z,17.80
2018-05-29T22:38:47.925Z,17.80
2018-05-29T22:41:15.560Z,17.80
2018-05-29T22:43:43.163Z,17.80
2018-05-29T22:46:10.792Z,17.80
2018-05-29T22:48:38.360Z,17.80
2018-05-29T22:51:06.046Z,17.80
2018-05-29T22:53:33.631Z,17.90
2018-05-29T22:56:02.038Z,17.90
2018-05-29T22:58:29.642Z,17.90
2018-05-29T23:00:57.221Z,17.90
2018-05-29T23:03:25.612Z,17.90
2018-05-29T23:05:54.036Z,17.90
2018-05-29T23:08:21.745Z,17.90
2018-05-29T23:10:50.156Z,18.10
2018-05-29T23:13:17.774Z,18.10
2018-05-29T23:15:45.355Z,18.10
2018-05-29T23:18:12.967Z,18.20
2018-05-29T23:20:40.580Z,18.30
2018-05-29T23:23:08.207Z,18.40
2018-05-29T23:25:35.799Z,18.40
2018-05-29T23:28:03.436Z,18.50
2018-05-29T23:30:31.799Z,18.40
2018-05-29T23:32:59.345Z,18.40
2018-05-29T23:35:26.994Z,18.30
2018-05-29T23:37:54.776Z,18.30
2018-05-29T23:40:22.405Z,18.20
2018-05-29T23:42:49.980Z,18.20
2018-05-29T23:45:17.564Z,18.10
2018-05-29T23:47:45.962Z,18.00
2018-05-29T23:50:13.567Z,17.90
2018-05-29T23:52:41.154Z,17.90
2018-05-29T23:55:08.774Z,17.90
2018-05-29T23:57:36.368Z,17.90
